Time;durP1;ratioP1;P1;durP2;ratioP2;P2;SDS_P1;SDS_P2;PMS_P1;PMS_P2;Temp;Humidity;BMP_temperature;BMP_pressure;BME280_temperature;BME280_humidity;BME280_pressure;Samples;Min_cycle;Max_cycle;Signal;HPM_P1;HPM_P2
2022/01/11 00:00:13;;;;;;;;;;;22.60;49.70;;;;;;5081055;28;20047;-67
2022/01/11 00:02:43;;;;;;;;;;;22.70;49.90;;;;;;5082038;28;19922;-69
2022/01/11 00:05:09;;;;;;;;;;;22.60;49.80;;;;;;5083736;28;20423;-67
2022/01/11 00:07:35;;;;;;;;;;;22.60;49.80;;;;;;5083507;28;19917;-69
2022/01/11 00:10:02;;;;;;;;;;;22.60;49.80;;;;;;5080800;28;19928;-67
2022/01/11 00:12:27;;;;;;;;;;;22.60;49.90;;;;;;5084079;28;19927;-69
2022/01/11 00:14:53;;;;;;;;;;;22.50;49.80;;;;;;5085504;28;19995;-70
2022/01/11 00:17:18;;;;;;;;;;;22.50;49.90;;;;;;5086208;28;19955;-69
2022/01/11 00:19:46;;;;;;;;;;;22.50;49.90;;;;;;5082800;28;19921;-68
2022/01/11 00:22:18;;;;;;;;;;;22.50;49.90;;;;;;5084391;28;19943;-70
2022/01/11 00:24:48;;;;;;;;;;;22.50;50.00;;;;;;5078414;28;19920;-70
2022/01/11 00:27:14;;;;;;;;;;;22.50;50.00;;;;;;5081312;28;20260;-68
2022/01/11 00:29:41;;;;;;;;;;;22.40;50.00;;;;;;5082106;28;19923;-70
2022/01/11 00:32:15;;;;;;;;;;;22.50;50.00;;;;;;5083539;28;20383;-67
2022/01/11 00:34:51;;;;;;;;;;;22.40;50.00;;;;;;5082331;28;19920;-69
2022/01/11 00:37:19;;;;;;;;;;;22.40;50.00;;;;;;5079686;28;20530;-67
2022/01/11 00:39:45;;;;;;;;;;;22.40;50.00;;;;;;5078897;28;19952;-69
2022/01/11 00:42:14;;;;;;;;;;;22.40;50.00;;;;;;5086499;28;20379;-67
2022/01/11 00:44:39;;;;;;;;;;;22.40;50.00;;;;;;5081982;28;19934;-69
2022/01/11 00:47:05;;;;;;;;;;;22.30;50.50;;;;;;5081998;28;19912;-69
2022/01/11 00:49:33;;;;;;;;;;;22.30;50.00;;;;;;5083535;28;19919;-68
2022/01/11 00:51:59;;;;;;;;;;;22.30;50.10;;;;;;5084369;28;19916;-67
2022/01/11 00:54:24;;;;;;;;;;;22.30;50.10;;;;;;5081265;28;19916;-70
2022/01/11 00:56:50;;;;;;;;;;;22.30;50.10;;;;;;5084302;28;20552;-70
2022/01/11 00:59:15;;;;;;;;;;;22.30;50.10;;;;;;5084696;28;20360;-70
2022/01/11 01:01:41;;;;;;;;;;;22.30;50.10;;;;;;5085845;28;19923;-69
2022/01/11 01:04:07;;;;;;;;;;;22.20;50.10;;;;;;5088617;28;19962;-69
2022/01/11 01:06:33;;;;;;;;;;;22.20;50.10;;;;;;5086250;28;20489;-69
2022/01/11 01:08:59;;;;;;;;;;;22.20;50.10;;;;;;5088781;28;19927;-69
2022/01/11 01:11:24;;;;;;;;;;;22.20;50.20;;;;;;5084126;28;19912;-69
2022/01/11 01:13:50;;;;;;;;;;;22.10;50.10;;;;;;5088603;28;19916;-70
2022/01/11 01:16:15;;;;;;;;;;;22.10;50.20;;;;;;5085559;28;19912;-68
2022/01/11 01:18:41;;;;;;;;;;;22.10;50.20;;;;;;5086183;28;19981;-67
2022/01/11 01:21:06;;;;;;;;;;;22.10;50.20;;;;;;5085980;28;20025;-67
2022/01/11 01:23:32;;;;;;;;;;;22.10;50.20;;;;;;5084551;28;19923;-68
2022/01/11 01:25:58;;;;;;;;;;;22.00;50.20;;;;;;5085908;28;19964;-70
2022/01/11 01:28:24;;;;;;;;;;;22.00;50.20;;;;;;5090167;28;20400;-69
2022/01/11 01:30:52;;;;;;;;;;;22.00;50.20;;;;;;5087801;28;19973;-69
2022/01/11 01:33:17;;;;;;;;;;;22.00;50.20;;;;;;5088374;28;19912;-68
2022/01/11 01:35:48;;;;;;;;;;;22.00;50.20;;;;;;5085220;28;20442;-68
2022/01/11 01:38:14;;;;;;;;;;;22.00;50.30;;;;;;5081883;28;19920;-69
2022/01/11 01:40:44;;;;;;;;;;;22.00;50.30;;;;;;5087621;28;20639;-70
2022/01/11 01:43:12;;;;;;;;;;;21.90;50.30;;;;;;5087850;28;19908;-67
2022/01/11 01:45:38;;;;;;;;;;;21.90;50.30;;;;;;5082382;28;19958;-68
2022/01/11 01:48:06;;;;;;;;;;;21.90;50.30;;;;;;5087056;28;19988;-69
2022/01/11 01:50:32;;;;;;;;;;;21.90;50.40;;;;;;5084402;28;19916;-69
2022/01/11 01:53:00;;;;;;;;;;;21.90;50.40;;;;;;5083436;28;20499;-68
2022/01/11 01:55:25;;;;;;;;;;;21.90;50.40;;;;;;5082617;28;20347;-69
2022/01/11 01:57:52;;;;;;;;;;;21.80;50.40;;;;;;5086090;28;19916;-68
2022/01/11 02:00:18;;;;;;;;;;;21.80;50.40;;;;;;5084584;28;19918;-69
2022/01/11 02:02:43;;;;;;;;;;;21.80;50.40;;;;;;5087044;28;19916;-69
2022/01/11 02:05:09;;;;;;;;;;;21.80;50.50;;;;;;5083333;28;20373;-69
2022/01/11 02:07:35;;;;;;;;;;;21.80;50.50;;;;;;5087894;28;19970;-70
2022/01/11 02:10:03;;;;;;;;;;;21.80;50.50;;;;;;5083998;28;19927;-68
2022/01/11 02:12:29;;;;;;;;;;;21.70;50.50;;;;;;5084895;28;19965;-69
2022/01/11 02:14:54;;;;;;;;;;;21.70;50.50;;;;;;5085915;28;19919;-69
2022/01/11 02:17:20;;;;;;;;;;;21.70;50.50;;;;;;5088182;28;19919;-67
2022/01/11 02:19:45;;;;;;;;;;;21.70;50.50;;;;;;5087944;28;19916;-69
2022/01/11 02:22:11;;;;;;;;;;;21.60;50.50;;;;;;5087884;28;20411;-70
2022/01/11 02:24:37;;;;;;;;;;;21.60;50.60;;;;;;5085752;28;20690;-67
2022/01/11 02:27:03;;;;;;;;;;;21.60;50.60;;;;;;5084301;28;19916;-70
2022/01/11 02:29:29;;;;;;;;;;;21.60;50.60;;;;;;5087579;28;19908;-67
2022/01/11 02:31:54;;;;;;;;;;;21.60;50.60;;;;;;5085604;28;19956;-70
2022/01/11 02:34:20;;;;;;;;;;;21.60;50.60;;;;;;5084951;28;20738;-68
2022/01/11 02:36:46;;;;;;;;;;;21.60;50.60;;;;;;5088024;28;19957;-70
2022/01/11 02:39:11;;;;;;;;;;;21.60;50.60;;;;;;5081784;28;20052;-69
2022/01/11 02:41:47;;;;;;;;;;;21.60;50.70;;;;;;5082560;28;19939;-69
2022/01/11 02:44:13;;;;;;;;;;;21.50;50.60;;;;;;5102715;28;19922;-69
2022/01/11 02:46:38;;;;;;;;;;;21.50;50.60;;;;;;5084303;28;20011;-70
2022/01/11 02:49:03;;;;;;;;;;;21.50;50.60;;;;;;5086721;28;20283;-67
2022/01/11 02:51:29;;;;;;;;;;;21.50;50.70;;;;;;5087841;28;19912;-68
2022/01/11 02:53:55;;;;;;;;;;;21.50;50.70;;;;;;5085711;28;19916;-67
2022/01/11 02:56:21;;;;;;;;;;;21.50;50.70;;;;;;5085623;28;19920;-70
2022/01/11 02:58:46;;;;;;;;;;;21.50;50.70;;;;;;5085494;28;19916;-69
2022/01/11 03:01:12;;;;;;;;;;;21.50;50.70;;;;;;5086504;28;19927;-67
2022/01/11 03:03:38;;;;;;;;;;;21.50;50.70;;;;;;5087810;28;20002;-68
2022/01/11 03:06:04;;;;;;;;;;;21.50;50.80;;;;;;5086403;28;20328;-68
2022/01/11 03:08:31;;;;;;;;;;;21.50;50.80;;;;;;5086392;28;20098;-67
2022/01/11 03:10:57;;;;;;;;;;;21.50;50.80;;;;;;5077749;28;19963;-69
2022/01/11 03:13:23;;;;;;;;;;;21.40;50.70;;;;;;5086642;28;20358;-69
2022/01/11 03:15:49;;;;;;;;;;;21.40;50.70;;;;;;5087815;28;19912;-67
2022/01/11 03:18:15;;;;;;;;;;;21.40;50.80;;;;;;5087251;28;19920;-69
2022/01/11 03:20:42;;;;;;;;;;;21.40;50.80;;;;;;5087710;28;19917;-67
2022/01/11 03:23:07;;;;;;;;;;;21.40;50.80;;;;;;5084625;28;20397;-68
2022/01/11 03:25:33;;;;;;;;;;;21.40;50.80;;;;;;5085660;28;19912;-67
2022/01/11 03:27:59;;;;;;;;;;;21.40;50.80;;;;;;5086203;28;19912;-70
2022/01/11 03:30:25;;;;;;;;;;;21.40;50.80;;;;;;5084978;28;19969;-70
2022/01/11 03:32:50;;;;;;;;;;;21.40;50.80;;;;;;5088605;28;19908;-69
2022/01/11 03:35:16;;;;;;;;;;;21.40;50.80;;;;;;5087252;28;20575;-70
2022/01/11 03:37:43;;;;;;;;;;;21.40;50.80;;;;;;5076872;28;19923;-70
2022/01/11 03:40:11;;;;;;;;;;;21.40;50.80;;;;;;5084078;28;20425;-69
2022/01/11 03:42:38;;;;;;;;;;;21.30;50.80;;;;;;5085005;28;19916;-68
2022/01/11 03:45:04;;;;;;;;;;;21.30;50.80;;;;;;5082958;28;19919;-70
2022/01/11 03:47:30;;;;;;;;;;;21.30;50.80;;;;;;5084910;28;19923;-68
2022/01/11 03:49:55;;;;;;;;;;;21.30;50.80;;;;;;5079299;28;19916;-69
2022/01/11 03:52:21;;;;;;;;;;;21.30;50.80;;;;;;5087304;28;20025;-67
2022/01/11 03:57:21;;;;;;;;;;;21.30;50.90;;;;;;5084937;28;20604;-67
2022/01/11 03:59:47;;;;;;;;;;;21.30;50.90;;;;;;5085846;28;19912;-69
2022/01/11 04:02:12;;;;;;;;;;;21.30;50.90;;;;;;5083701;28;19977;-70
2022/01/11 04:04:38;;;;;;;;;;;21.30;51.00;;;;;;5084459;28;20436;-69
2022/01/11 04:07:04;;;;;;;;;;;21.20;50.90;;;;;;5084415;28;20473;-68
2022/01/11 04:09:29;;;;;;;;;;;21.30;51.00;;;;;;5084855;28;19928;-69
2022/01/11 04:11:55;;;;;;;;;;;21.20;50.90;;;;;;5085668;28;19923;-68
2022/01/11 04:14:21;;;;;;;;;;;21.20;50.90;;;;;;5085349;28;19919;-67
2022/01/11 04:16:48;;;;;;;;;;;21.20;50.90;;;;;;5084761;28;19993;-69
2022/01/11 04:19:13;;;;;;;;;;;21.20;51.00;;;;;;5086815;28;19920;-70
2022/01/11 04:21:39;;;;;;;;;;;21.20;50.90;;;;;;5084032;28;20753;-68
2022/01/11 04:24:05;;;;;;;;;;;21.20;51.00;;;;;;5084227;28;19931;-70
2022/01/11 04:26:30;;;;;;;;;;;21.20;51.00;;;;;;5077157;28;20010;-68
2022/01/11 04:28:56;;;;;;;;;;;21.20;51.00;;;;;;5085168;28;20010;-67
2022/01/11 04:31:21;;;;;;;;;;;21.20;51.00;;;;;;5084344;28;19951;-68
2022/01/11 04:33:47;;;;;;;;;;;21.20;51.00;;;;;;5088143;28;19919;-70
2022/01/11 04:36:12;;;;;;;;;;;21.20;51.00;;;;;;5084926;28;19930;-67
2022/01/11 04:38:38;;;;;;;;;;;21.20;51.00;;;;;;5083312;28;19920;-68
2022/01/11 04:41:04;;;;;;;;;;;21.20;51.00;;;;;;5089049;28;19912;-69
2022/01/11 04:43:32;;;;;;;;;;;21.20;51.00;;;;;;5090113;28;19931;-69
2022/01/11 04:45:58;;;;;;;;;;;21.10;51.00;;;;;;5085297;28;20042;-69
2022/01/11 04:48:23;;;;;;;;;;;21.10;51.00;;;;;;5088334;28;19966;-69
2022/01/11 04:50:49;;;;;;;;;;;21.10;51.10;;;;;;5085563;28;19912;-70
2022/01/11 04:53:15;;;;;;;;;;;21.10;51.10;;;;;;5083423;28;19969;-69
2022/01/11 04:55:40;;;;;;;;;;;21.10;51.10;;;;;;5084035;28;19946;-67
2022/01/11 04:58:06;;;;;;;;;;;21.10;51.10;;;;;;5087173;28;19920;-67
2022/01/11 05:00:32;;;;;;;;;;;21.10;51.10;;;;;;5086221;28;19966;-68
2022/01/11 05:02:59;;;;;;;;;;;21.10;51.10;;;;;;5090081;28;19969;-69
2022/01/11 05:05:26;;;;;;;;;;;21.10;51.20;;;;;;5088779;28;19912;-69
2022/01/11 05:07:51;;;;;;;;;;;21.10;51.20;;;;;;5089099;28;20007;-69
2022/01/11 05:10:17;;;;;;;;;;;21.10;51.20;;;;;;5085144;28;20031;-67
2022/01/11 05:12:42;;;;;;;;;;;21.10;51.30;;;;;;5089449;28;19919;-69
2022/01/11 05:15:09;;;;;;;;;;;21.10;51.30;;;;;;5089062;28;20351;-69
2022/01/11 05:17:35;;;;;;;;;;;21.10;51.30;;;;;;5089500;28;20305;-70
2022/01/11 05:20:01;;;;;;;;;;;21.00;51.30;;;;;;5086169;28;19927;-68
2022/01/11 05:22:26;;;;;;;;;;;21.10;51.30;;;;;;5091245;28;19916;-68
2022/01/11 05:24:52;;;;;;;;;;;21.00;51.30;;;;;;5083377;28;19916;-67
2022/01/11 05:27:17;;;;;;;;;;;21.00;51.40;;;;;;5089469;28;19942;-70
2022/01/11 05:29:43;;;;;;;;;;;21.00;51.40;;;;;;5085017;28;19919;-70
2022/01/11 05:32:08;;;;;;;;;;;21.00;51.40;;;;;;5089141;28;20717;-67
2022/01/11 05:34:34;;;;;;;;;;;21.00;51.40;;;;;;5089518;28;20290;-70
2022/01/11 05:36:59;;;;;;;;;;;21.00;51.40;;;;;;5087846;28;19922;-69
2022/01/11 05:39:25;;;;;;;;;;;21.00;51.40;;;;;;5086651;28;19920;-69
2022/01/11 05:41:50;;;;;;;;;;;21.00;51.40;;;;;;5089570;28;19957;-69
2022/01/11 05:44:16;;;;;;;;;;;21.00;51.40;;;;;;5081577;28;19917;-70
2022/01/11 05:46:41;;;;;;;;;;;21.00;51.40;;;;;;5085114;28;20003;-70
2022/01/11 05:49:07;;;;;;;;;;;21.00;51.40;;;;;;5089112;28;19943;-67
2022/01/11 05:51:32;;;;;;;;;;;21.00;51.40;;;;;;5085957;28;19917;-69
2022/01/11 05:53:58;;;;;;;;;;;21.00;51.40;;;;;;5083932;28;20395;-70
2022/01/11 05:56:23;;;;;;;;;;;21.00;51.40;;;;;;5084510;28;19919;-70
2022/01/11 05:58:51;;;;;;;;;;;21.00;51.40;;;;;;5085882;28;19916;-69
2022/01/11 06:01:16;;;;;;;;;;;21.00;51.40;;;;;;5082637;28;19988;-70
2022/01/11 06:03:42;;;;;;;;;;;21.00;51.40;;;;;;5079568;28;20391;-67
2022/01/11 06:06:07;;;;;;;;;;;21.00;51.40;;;;;;5081347;28;19916;-69
2022/01/11 06:08:33;;;;;;;;;;;20.90;51.30;;;;;;5084498;28;20290;-67
2022/01/11 06:10:58;;;;;;;;;;;20.90;51.40;;;;;;5083198;28;20363;-69
2022/01/11 06:13:24;;;;;;;;;;;20.90;51.40;;;;;;5080651;28;19919;-69
2022/01/11 06:15:50;;;;;;;;;;;20.90;51.40;;;;;;5081839;28;19921;-74
2022/01/11 06:18:16;;;;;;;;;;;21.00;51.40;;;;;;5077368;28;19916;-68
2022/01/11 06:20:42;;;;;;;;;;;21.00;52.40;;;;;;5083216;28;19942;-72
2022/01/11 06:23:07;;;;;;;;;;;21.10;52.90;;;;;;5085625;28;19931;-74
2022/01/11 06:25:33;;;;;;;;;;;21.20;53.00;;;;;;5077378;28;19913;-71
2022/01/11 06:27:58;;;;;;;;;;;21.40;53.10;;;;;;5081128;28;19912;-71
2022/01/11 06:30:24;;;;;;;;;;;21.50;53.20;;;;;;5084255;28;19958;-72
2022/01/11 06:32:50;;;;;;;;;;;21.60;53.30;;;;;;5086834;28;19915;-73
2022/01/11 06:35:16;;;;;;;;;;;21.70;53.20;;;;;;5082770;28;20360;-71
2022/01/11 06:37:42;;;;;;;;;;;21.80;53.40;;;;;;5080159;28;20039;-71
2022/01/11 06:40:08;;;;;;;;;;;22.00;53.40;;;;;;5082390;28;19927;-71
2022/01/11 06:42:34;;;;;;;;;;;22.10;53.30;;;;;;5083161;28;19923;-70
2022/01/11 06:44:59;;;;;;;;;;;22.20;53.30;;;;;;5085385;28;19916;-71
2022/01/11 06:47:25;;;;;;;;;;;22.30;53.10;;;;;;5085536;28;19916;-74
2022/01/11 06:49:50;;;;;;;;;;;22.40;53.30;;;;;;5084583;28;19920;-69
2022/01/11 06:52:16;;;;;;;;;;;22.50;51.50;;;;;;5083281;28;19951;-72
2022/01/11 06:54:42;;;;;;;;;;;22.50;50.60;;;;;;5082998;28;19920;-70
2022/01/11 06:57:08;;;;;;;;;;;22.40;50.30;;;;;;5082749;28;19916;-70
2022/01/11 06:59:36;;;;;;;;;;;22.30;50.10;;;;;;5085351;28;19916;-71
2022/01/11 07:02:05;;;;;;;;;;;22.30;50.00;;;;;;5090837;28;19916;-73
2022/01/11 07:04:31;;;;;;;;;;;22.30;50.10;;;;;;5085367;28;20395;-71
2022/01/11 07:06:57;;;;;;;;;;;22.40;50.10;;;;;;5082839;28;20010;-69
2022/01/11 07:09:22;;;;;;;;;;;22.40;49.80;;;;;;5080445;28;20006;-68
2022/01/11 07:11:48;;;;;;;;;;;22.40;49.80;;;;;;5083434;28;20330;-72
2022/01/11 07:14:13;;;;;;;;;;;22.40;49.70;;;;;;5088607;28;19920;-73
2022/01/11 07:16:39;;;;;;;;;;;22.40;49.80;;;;;;5081559;28;19927;-70
2022/01/11 07:19:04;;;;;;;;;;;22.40;49.70;;;;;;5082215;28;19920;-71
2022/01/11 07:21:30;;;;;;;;;;;22.40;49.70;;;;;;5089284;28;19916;-70
2022/01/11 07:23:56;;;;;;;;;;;22.40;49.70;;;;;;5082474;28;19908;-72
2022/01/11 07:26:21;;;;;;;;;;;22.40;49.60;;;;;;5079313;28;19922;-70
2022/01/11 07:28:47;;;;;;;;;;;22.40;49.60;;;;;;5074271;28;19912;-72
2022/01/11 07:31:13;;;;;;;;;;;22.40;49.60;;;;;;5081625;28;19916;-70
2022/01/11 07:33:38;;;;;;;;;;;22.50;49.70;;;;;;5084906;28;20400;-71
2022/01/11 07:36:04;;;;;;;;;;;22.40;49.70;;;;;;5082806;28;20007;-73
2022/01/11 07:38:30;;;;;;;;;;;22.50;49.70;;;;;;5083635;28;19927;-70
2022/01/11 07:40:55;;;;;;;;;;;22.50;49.80;;;;;;5084934;28;20545;-70
2022/01/11 07:43:21;;;;;;;;;;;22.50;49.70;;;;;;5085203;28;20007;-72
2022/01/11 07:45:46;;;;;;;;;;;22.50;49.80;;;;;;5086905;28;19920;-73
2022/01/11 07:48:12;;;;;;;;;;;22.50;49.70;;;;;;5083612;28;20321;-72
2022/01/11 07:50:37;;;;;;;;;;;22.50;49.80;;;;;;5086820;28;19943;-70
2022/01/11 07:53:05;;;;;;;;;;;22.50;49.80;;;;;;5081659;28;20022;-71
2022/01/11 07:55:31;;;;;;;;;;;22.50;49.80;;;;;;5077614;28;19933;-74
2022/01/11 07:57:57;;;;;;;;;;;22.50;49.90;;;;;;5084694;28;19916;-70
2022/01/11 08:00:22;;;;;;;;;;;22.50;49.80;;;;;;5088421;28;19919;-72
2022/01/11 08:02:48;;;;;;;;;;;22.50;49.80;;;;;;5090257;28;19912;-72
2022/01/11 08:05:15;;;;;;;;;;;22.50;49.90;;;;;;5081327;28;19912;-71
2022/01/11 08:07:42;;;;;;;;;;;22.50;50.40;;;;;;5080568;28;19955;-70
2022/01/11 08:10:09;;;;;;;;;;;22.50;50.00;;;;;;5078999;28;19927;-72
2022/01/11 08:12:34;;;;;;;;;;;22.50;50.00;;;;;;5083541;28;19912;-72
2022/01/11 08:15:00;;;;;;;;;;;22.50;47.50;;;;;;5083295;28;19927;-72
2022/01/11 08:17:28;;;;;;;;;;;22.40;48.60;;;;;;5080623;28;19927;-71
2022/01/11 08:19:54;;;;;;;;;;;22.40;49.20;;;;;;5079498;28;20388;-70
2022/01/11 08:22:19;;;;;;;;;;;22.40;49.70;;;;;;5077813;28;19942;-72
2022/01/11 08:24:45;;;;;;;;;;;22.50;49.00;;;;;;5081690;28;19912;-71
2022/01/11 08:27:11;;;;;;;;;;;22.40;48.30;;;;;;5087277;28;19919;-69
2022/01/11 08:29:37;;;;;;;;;;;22.40;48.80;;;;;;5087138;28;19960;-72
2022/01/11 08:32:03;;;;;;;;;;;22.50;49.30;;;;;;5088422;28;19927;-71
2022/01/11 08:34:28;;;;;;;;;;;22.50;49.20;;;;;;5102594;28;20434;-70
2022/01/11 08:36:55;;;;;;;;;;;22.50;49.20;;;;;;5089795;28;19912;-70
2022/01/11 08:39:21;;;;;;;;;;;22.50;49.20;;;;;;5083506;28;20472;-69
2022/01/11 08:41:46;;;;;;;;;;;22.50;49.30;;;;;;5085213;28;19920;-68
2022/01/11 08:44:12;;;;;;;;;;;22.50;49.30;;;;;;5083971;28;19912;-68
2022/01/11 08:46:38;;;;;;;;;;;22.50;49.30;;;;;;5078642;28;19916;-72
2022/01/11 08:49:04;;;;;;;;;;;22.50;49.50;;;;;;5086533;28;19912;-69
2022/01/11 08:51:30;;;;;;;;;;;22.50;49.40;;;;;;5084785;28;19923;-70
2022/01/11 08:53:56;;;;;;;;;;;22.50;49.40;;;;;;5082548;28;20264;-70
2022/01/11 08:56:21;;;;;;;;;;;22.50;49.60;;;;;;5081215;28;19932;-70
2022/01/11 08:58:47;;;;;;;;;;;22.50;49.70;;;;;;5081777;28;19916;-78
2022/01/11 09:01:12;;;;;;;;;;;22.50;49.60;;;;;;5081943;28;19912;-71
2022/01/11 09:03:38;;;;;;;;;;;22.50;49.70;;;;;;5085971;28;20650;-71
2022/01/11 09:06:07;;;;;;;;;;;22.50;50.10;;;;;;5081591;28;19981;-70
2022/01/11 09:08:33;;;;;;;;;;;22.60;50.60;;;;;;5082092;28;20761;-68
2022/01/11 09:10:58;;;;;;;;;;;22.60;51.20;;;;;;5081804;28;19921;-67
2022/01/11 09:13:26;;;;;;;;;;;22.60;51.60;;;;;;5084512;28;19961;-74
2022/01/11 09:15:51;;;;;;;;;;;22.70;51.60;;;;;;5080460;28;19966;-70
2022/01/11 09:18:17;;;;;;;;;;;22.70;52.70;;;;;;5082280;28;20318;-69
2022/01/11 09:20:42;;;;;;;;;;;22.80;52.70;;;;;;5086388;28;20080;-74
2022/01/11 09:23:08;;;;;;;;;;;22.90;52.80;;;;;;5082572;28;20285;-70
2022/01/11 09:25:34;;;;;;;;;;;22.90;53.70;;;;;;5084268;28;20505;-72
2022/01/11 09:27:59;;;;;;;;;;;22.90;53.90;;;;;;5084544;28;19923;-71
2022/01/11 09:30:25;;;;;;;;;;;23.00;54.70;;;;;;5086474;28;20391;-67
2022/01/11 09:32:50;;;;;;;;;;;23.00;54.70;;;;;;5085662;28;19911;-72
2022/01/11 09:35:16;;;;;;;;;;;23.00;54.90;;;;;;5084111;28;19959;-71
2022/01/11 09:37:41;;;;;;;;;;;23.10;54.60;;;;;;5084311;28;20018;-69
2022/01/11 09:40:08;;;;;;;;;;;23.10;55.20;;;;;;5083986;28;20012;-68
2022/01/11 09:42:34;;;;;;;;;;;23.10;55.60;;;;;;5083905;28;19916;-71
2022/01/11 09:45:00;;;;;;;;;;;23.10;56.00;;;;;;5082162;28;19931;-68
2022/01/11 09:47:25;;;;;;;;;;;23.20;56.20;;;;;;5085739;28;19920;-68
2022/01/11 09:49:51;;;;;;;;;;;23.20;55.80;;;;;;5084289;28;19958;-70
2022/01/11 09:52:16;;;;;;;;;;;23.20;55.40;;;;;;5085372;28;20012;-70
2022/01/11 09:54:44;;;;;;;;;;;23.20;56.50;;;;;;5080671;28;19920;-71
2022/01/11 09:57:10;;;;;;;;;;;23.30;56.70;;;;;;5086801;28;19921;-70
2022/01/11 09:59:36;;;;;;;;;;;23.30;56.80;;;;;;5079549;28;20481;-70
2022/01/11 10:02:02;;;;;;;;;;;23.40;57.00;;;;;;5083640;28;19999;-67
2022/01/11 10:04:29;;;;;;;;;;;23.40;57.30;;;;;;5083835;28;19916;-66
2022/01/11 10:06:59;;;;;;;;;;;23.40;57.00;;;;;;5084631;28;20402;-72
2022/01/11 10:09:26;;;;;;;;;;;23.40;56.80;;;;;;5080030;28;20006;-72
2022/01/11 10:11:53;;;;;;;;;;;23.50;56.70;;;;;;5085184;28;20004;-71
2022/01/11 10:14:23;;;;;;;;;;;23.40;52.60;;;;;;5086323;28;19916;-73
2022/01/11 10:16:49;;;;;;;;;;;23.40;49.30;;;;;;5083563;28;19916;-75
2022/01/11 10:19:20;;;;;;;;;;;23.30;47.60;;;;;;5084147;28;19923;-71
2022/01/11 10:21:47;;;;;;;;;;;23.20;45.20;;;;;;5085656;28;19923;-70
2022/01/11 10:24:35;;;;;;;;;;;23.20;45.80;;;;;;5083082;28;19913;-68
2022/01/11 10:27:10;;;;;;;;;;;23.20;45.90;;;;;;5082472;28;19912;-68
2022/01/11 10:29:40;;;;;;;;;;;23.20;46.10;;;;;;5079454;28;20360;-68
2022/01/11 10:32:17;;;;;;;;;;;23.20;47.20;;;;;;5086138;28;19912;-68
2022/01/11 10:34:43;;;;;;;;;;;23.20;48.00;;;;;;5080705;28;19919;-69
2022/01/11 10:37:10;;;;;;;;;;;23.10;48.40;;;;;;5086546;28;19923;-69
2022/01/11 10:39:37;;;;;;;;;;;23.10;48.40;;;;;;5082093;28;19920;-70
2022/01/11 10:42:03;;;;;;;;;;;23.10;48.60;;;;;;5078347;28;19920;-67
2022/01/11 10:44:41;;;;;;;;;;;23.10;48.70;;;;;;5078336;28;20379;-69
2022/01/11 10:47:07;;;;;;;;;;;23.10;48.70;;;;;;5079312;28;20027;-69
2022/01/11 10:49:35;;;;;;;;;;;23.20;49.00;;;;;;5081828;28;20011;-68
2022/01/11 10:52:15;;;;;;;;;;;23.10;48.90;;;;;;5086274;28;19948;-70
2022/01/11 10:54:41;;;;;;;;;;;23.10;49.20;;;;;;5081295;28;19916;-66
2022/01/11 10:57:18;;;;;;;;;;;23.10;49.10;;;;;;5084039;28;19958;-72
2022/01/11 10:59:43;;;;;;;;;;;23.10;49.10;;;;;;5082680;28;19923;-70
2022/01/11 11:02:13;;;;;;;;;;;23.10;49.30;;;;;;5081511;28;19916;-69
2022/01/11 11:04:39;;;;;;;;;;;23.10;49.40;;;;;;5084016;28;19956;-68
2022/01/11 11:07:11;;;;;;;;;;;23.10;49.30;;;;;;5085018;28;21916;-69
2022/01/11 11:09:47;;;;;;;;;;;23.10;49.10;;;;;;5080630;28;19916;-69
2022/01/11 11:12:19;;;;;;;;;;;23.10;49.30;;;;;;5085015;28;19916;-68
2022/01/11 11:14:55;;;;;;;;;;;23.10;49.10;;;;;;5082604;28;19926;-70
2022/01/11 11:17:24;;;;;;;;;;;23.10;49.10;;;;;;5082935;28;19961;-70
2022/01/11 11:20:07;;;;;;;;;;;23.10;49.20;;;;;;5083742;28;19920;-68
2022/01/11 11:22:33;;;;;;;;;;;23.10;49.10;;;;;;5079887;28;20545;-69
2022/01/11 11:24:59;;;;;;;;;;;23.10;49.10;;;;;;5078756;28;19980;-70
2022/01/11 11:27:25;;;;;;;;;;;23.10;49.10;;;;;;5083383;28;19923;-71
2022/01/11 11:29:51;;;;;;;;;;;23.00;49.00;;;;;;5082440;28;19917;-70
2022/01/11 11:32:20;;;;;;;;;;;23.10;49.10;;;;;;5080746;28;19924;-71
2022/01/11 11:34:49;;;;;;;;;;;23.00;49.10;;;;;;5080303;28;19970;-71
2022/01/11 11:37:27;;;;;;;;;;;23.00;49.30;;;;;;5083532;28;20025;-73
2022/01/11 11:39:57;;;;;;;;;;;23.00;49.40;;;;;;5077995;28;19968;-70
2022/01/11 11:42:22;;;;;;;;;;;23.00;49.70;;;;;;5080484;28;19916;-68
2022/01/11 11:44:48;;;;;;;;;;;23.10;50.00;;;;;;5080382;28;19916;-72
2022/01/11 11:47:14;;;;;;;;;;;23.00;50.10;;;;;;5082903;28;19908;-69
2022/01/11 11:49:45;;;;;;;;;;;23.10;50.20;;;;;;5083112;28;19992;-73
2022/01/11 11:52:24;;;;;;;;;;;23.10;50.30;;;;;;5081675;28;20019;-71
2022/01/11 11:55:09;;;;;;;;;;;23.10;50.40;;;;;;5082306;28;19955;-67
2022/01/11 11:57:36;;;;;;;;;;;23.10;51.20;;;;;;5081368;28;20021;-69
2022/01/11 12:00:05;;;;;;;;;;;23.20;51.40;;;;;;5081313;28;20351;-69
2022/01/11 12:02:34;;;;;;;;;;;23.20;51.40;;;;;;5082498;28;20237;-70
2022/01/11 12:04:59;;;;;;;;;;;23.30;51.50;;;;;;5078423;28;19957;-71
2022/01/11 12:07:29;;;;;;;;;;;23.30;51.80;;;;;;5081827;28;20379;-71
2022/01/11 12:09:54;;;;;;;;;;;23.30;51.70;;;;;;5077920;28;19934;-71
2022/01/11 12:12:38;;;;;;;;;;;23.30;51.80;;;;;;5084176;28;20015;-70
2022/01/11 12:15:21;;;;;;;;;;;23.30;51.70;;;;;;5080774;28;19924;-66
2022/01/11 12:18:07;;;;;;;;;;;23.40;52.10;;;;;;5085594;28;19920;-69
2022/01/11 12:20:39;;;;;;;;;;;23.40;52.10;;;;;;5066931;28;19950;-71
2022/01/11 12:23:05;;;;;;;;;;;23.40;50.20;;;;;;5084745;28;19977;-67
2022/01/11 12:25:32;;;;;;;;;;;23.40;49.50;;;;;;5094470;28;19946;-71
2022/01/11 12:27:59;;;;;;;;;;;23.40;49.70;;;;;;5081815;28;19912;-71
2022/01/11 12:30:26;;;;;;;;;;;23.40;50.10;;;;;;5083812;28;19916;-68
2022/01/11 12:33:10;;;;;;;;;;;23.40;50.30;;;;;;5086095;28;19939;-70
2022/01/11 12:35:51;;;;;;;;;;;23.40;50.60;;;;;;5076528;28;20125;-71
2022/01/11 12:38:16;;;;;;;;;;;23.40;50.60;;;;;;5074790;28;19920;-73
2022/01/11 12:40:43;;;;;;;;;;;23.50;50.80;;;;;;5082840;28;19969;-66
2022/01/11 12:43:16;;;;;;;;;;;23.50;51.00;;;;;;5081228;28;20382;-67
2022/01/11 12:46:01;;;;;;;;;;;23.50;51.20;;;;;;5081001;28;19955;-72
2022/01/11 12:48:47;;;;;;;;;;;23.50;51.30;;;;;;5081456;28;19912;-73
2022/01/11 12:51:18;;;;;;;;;;;23.50;51.30;;;;;;5082755;28;19912;-73
2022/01/11 12:53:44;;;;;;;;;;;23.60;51.70;;;;;;5080747;28;19920;-71
2022/01/11 12:56:09;;;;;;;;;;;23.60;51.70;;;;;;5085701;28;20362;-70
2022/01/11 12:58:36;;;;;;;;;;;23.70;51.90;;;;;;5085376;28;20267;-69
2022/01/11 13:01:14;;;;;;;;;;;23.70;51.80;;;;;;5086069;28;19913;-70
2022/01/11 13:03:54;;;;;;;;;;;23.70;51.80;;;;;;5102286;28;19951;-70
2022/01/11 13:06:19;;;;;;;;;;;23.70;51.90;;;;;;5084099;28;19912;-71
2022/01/11 13:08:50;;;;;;;;;;;23.70;52.00;;;;;;5082021;28;19916;-72
2022/01/11 13:11:18;;;;;;;;;;;23.80;52.40;;;;;;5081857;28;19916;-71
2022/01/11 13:13:52;;;;;;;;;;;23.80;52.00;;;;;;5086911;28;20372;-69
2022/01/11 13:16:27;;;;;;;;;;;23.80;52.10;;;;;;5080469;28;20188;-70
2022/01/11 13:18:52;;;;;;;;;;;23.80;52.10;;;;;;5087643;28;19916;-67
2022/01/11 13:21:21;;;;;;;;;;;23.90;52.40;;;;;;5084869;28;19922;-70
2022/01/11 13:23:59;;;;;;;;;;;23.90;52.30;;;;;;5086612;28;19923;-67
2022/01/11 13:26:26;;;;;;;;;;;23.90;52.20;;;;;;5080685;28;19969;-68
2022/01/11 13:28:55;;;;;;;;;;;23.90;52.20;;;;;;5083229;28;19999;-72
2022/01/11 13:31:31;;;;;;;;;;;23.90;52.10;;;;;;5086515;28;20469;-70
2022/01/11 13:34:00;;;;;;;;;;;23.90;52.30;;;;;;5085917;28;19912;-71
2022/01/11 13:36:27;;;;;;;;;;;24.00;52.40;;;;;;5083950;28;19923;-70
2022/01/11 13:38:57;;;;;;;;;;;24.00;52.30;;;;;;5083401;28;19981;-70
2022/01/11 13:41:27;;;;;;;;;;;24.00;52.50;;;;;;5084464;28;19916;-70
2022/01/11 13:43:55;;;;;;;;;;;24.10;52.50;;;;;;5080596;28;20019;-71
2022/01/11 13:46:21;;;;;;;;;;;24.10;52.60;;;;;;5083540;28;19915;-73
2022/01/11 13:48:48;;;;;;;;;;;24.10;52.60;;;;;;5083058;28;19976;-70
2022/01/11 13:51:14;;;;;;;;;;;24.10;52.50;;;;;;5081200;28;20350;-73
2022/01/11 13:53:44;;;;;;;;;;;24.20;52.70;;;;;;5085183;28;19958;-71
2022/01/11 13:56:16;;;;;;;;;;;24.20;53.20;;;;;;5082453;28;19912;-74
2022/01/11 13:58:50;;;;;;;;;;;24.20;52.60;;;;;;5081492;28;19920;-71
2022/01/11 14:01:16;;;;;;;;;;;24.30;52.60;;;;;;5077834;28;19977;-72
2022/01/11 14:03:42;;;;;;;;;;;24.30;52.80;;;;;;5080189;28;19912;-72
2022/01/11 14:06:21;;;;;;;;;;;24.30;52.80;;;;;;5084109;28;19916;-73
2022/01/11 14:08:50;;;;;;;;;;;24.30;52.70;;;;;;5084181;28;20073;-70
2022/01/11 14:11:24;;;;;;;;;;;24.30;52.80;;;;;;5076426;28;19912;-72
2022/01/11 14:13:50;;;;;;;;;;;24.40;52.80;;;;;;5085291;28;20702;-71
2022/01/11 14:16:16;;;;;;;;;;;24.40;52.80;;;;;;5080571;28;19916;-69
2022/01/11 14:18:42;;;;;;;;;;;24.40;52.80;;;;;;5084163;28;19920;-71